Tiempo atmosférico en la estación meteorológica de Valderredible, Cubillo de Ebro, Cantabria (765 m.)



Fecha
DESCASC
Temp. máxima en grados centígrados (hora)
DESCASC
Temp. mínima en grados centígrados (hora)
DESCASC
Temp. media en grados centígrados
DESCASC
Racha de viento máxima en m/sg (hora)
DESCASC
Velocidad máxima media en intervalos de 10 minutos(hora)
DESCASC
Precipitaciones diarias en mm
DESCASC
Precipitaciones de 00:00 a 06:00 en mm
DESCASC
Precipitaciones de 06:00 a 12:00 en mm
DESCASC
Precipitaciones de 12:00 a 18:00 en mm
DESCASC
Precipitaciones de 18:00 a 24:00 en mm
DESCASC
31-10-2019 20.2 (14:00) 11.4 (07:00) 15.8 4.44 (13:50) 2.78 (01:10) 0 0 0 0 0
21-10-2019 13.1 (16:30) 3.2 (00:00) 8.2 4.17 (19:40) 2.5 (14:20) 0 0 0 0 0
29-10-2019 19.1 (15:50) 6.5 (00:00) 12.8 6.67 (15:50) 3.33 (11:30) 0 0 0 0 0
28-10-2019 22.8 (14:10) 9.7 (00:00) 16.2 8.89 (12:50) 5 (12:50) 0 0 0 0 0
25-10-2019 19.1 (17:20) 7.8 (00:00) 13.5 6.94 (15:30) 4.17 (15:30) 0 0 0 0 0
26-10-2019 21.8 (16:40) 5 (00:00) 13.4 8.33 (13:40) 4.17 (15:50) 0 0 0 0 0
27-10-2019 19.8 (15:50) 5.6 (00:00) 12.7 6.39 (15:00) 3.06 (17:40) 0 0 0 0 0
16-11-2019 6.1 (14:10) -2.8 (-00:0) 1.6 7.78 (15:00) 4.17 (15:00) 0.2 0 0.2 0 0
02-11-2019 15.1 (10:00) 11.2 (00:00) 13.2 18.89 (23:59) 7.78 (23:30) 0.4 0 0 0.2 0.2
30-10-2019 16 (15:40) 5.8 (00:00) 10.9 8.33 (15:20) 4.17 (15:20) 0.4 0 0 0.4 0
04-11-2019 15.6 (15:30) 6.2 (00:00) 10.9 17.5 (09:50) 9.17 (05:20) 0.8 0 0.6 0.2 0
18-10-2019 17.4 (15:20) 11.3 (00:00) 14.3 9.44 (14:10) 4.17 (14:20) 1.4 1.4 0 0 0
07-11-2019 11.1 (13:50) 2.4 (00:00) 6.8 12.5 (15:10) 7.22 (15:50) 1.8 1.8 0 0 0
03-11-2019 16.3 (15:10) 5.1 (00:00) 10.7 16.11 (01:40) 8.33 (13:40) 2 2 0 0 0
06-11-2019 13 (14:40) 4.2 (00:00) 8.6 10.56 (15:20) 5 (15:30) 2 1.6 0 0 0.4
08-11-2019 9.8 (15:00) 1.5 (00:00) 5.7 13.33 (17:10) 6.67 (20:30) 2 0.4 0.8 0 0.8
12-11-2019 11.6 (13:50) 1.7 (00:00) 6.7 7.5 (17:50) 3.89 (15:30) 2.2 0 0 0.2 2
01-11-2019 18.6 (14:30) 14.1 (00:00) 16.4 10.56 (17:20) 5.56 (15:10) 2.4 0 0 2.2 0.2
11-11-2019 9.5 (12:40) 0.5 (03:40) 5 15.83 (12:30) 9.17 (12:30) 2.6 0 0 2 0.6
22-10-2019 9.9 (13:40) 3.4 (00:00) 6.6 10 (23:40) 4.17 (19:00) 2.8 0 0 0.2 2.6
13-11-2019 11.1 (15:50) 6 (00:00) 8.6 11.39 (23:20) 6.39 (21:50) 5.2 4.4 0.8 0 0
14-11-2019 7.9 (00:20) -0.8 (-00:0) 3.6 13.89 (02:00) 6.11 (02:00) 5.4 4.4 0 0.4 0.6
05-11-2019 9.7 (15:10) 4.9 (00:00) 7.3 12.22 (14:20) 7.22 (14:40) 6.8 0 3.2 2.4 1.2
19-10-2019 12.4 (15:40) 9.1 (00:00) 10.8 8.06 (00:10) 3.06 (01:30) 10 0.2 0.4 2.8 6.6
09-11-2019 10.1 (17:00) 3 (00:00) 6.6 10.28 (12:40) 6.67 (13:20) 10.6 0.8 0.8 0 9
24-10-2019 14.5 (16:50) 4.9 (00:00) 9.7 7.5 (13:40) 4.17 (13:40) 13.8 13.8 0 0 0
15-11-2019 3 (15:50) -1.6 (-00:0) 0.7 6.11 (06:20) 3.61 (06:10) 18.4 3.2 6 3 6.2
20-10-2019 9.1 (00:00) 3.7 (00:00) 6.4 7.22 (06:10) 2.5 (06:10) 23.4 7.8 10 5.2 0.4
10-11-2019 3 (00:00) 0.4 (00:00) 1.7 6.39 (01:50) 3.61 (08:30) 25 1 8.4 13.4 2.2
23-10-2019 12.7 (16:30) 7.7 (00:00) 10.2 13.06 (04:40) 6.11 (04:10) 40.4 0 16.2 3 21.2

Gráficas

Temp. máximas Temp. mínimas Temp. medias Precipitaciones Rachas de viento máximas Velocidades máximas media en intervalos de 10 minutos

Datos horarios

Fecha y hora oficial Temperatura (ºC) Velocidad del viento (km/h) Dirección del viento Racha (km/h) Dirección de racha Precipitación (mm) Presión (hPa) Tendencia (hPa) Humedad (%)
2019-11-16 23:00:00 0.5 3 Este 10 Sudoeste 0 -- -- 96
2019-11-16 22:00:00 0.3 4 Sudeste 8 Noroeste 0 -- -- 97
2019-11-16 21:00:00 -0.2 3 Nordeste 13 Noroeste 0 -- -- 96
2019-11-16 20:00:00 0.4 4 Noroeste 14 Oeste 0 -- -- 95
2019-11-16 19:00:00 0.9 4 Noroeste 9 Noroeste 0 -- -- 92
2019-11-16 18:00:00 3.3 5 Noroeste 9 Noroeste 0 -- -- 88
2019-11-16 17:00:00 5.2 6 Noroeste 11 Norte 0 -- -- 79
2019-11-16 16:00:00 5.2 4 Noroeste 23 Oeste 0 -- -- 79
2019-11-16 15:00:00 5.6 15 Oeste 28 Oeste 0 -- -- 78
2019-11-16 14:00:00 5.7 3 Oeste 9 Oeste 0 -- -- 94
2019-11-16 13:00:00 2.5 4 Noroeste 12 Este 0 -- -- 94
2019-11-16 12:00:00 2.1 9 Este 13 Este 0 -- -- 99
2019-11-16 11:00:00 0.3 4 Este 7 Este 0.2 -- -- 99
2019-11-16 10:00:00 -1 2 Oeste 6 Oeste 0 -- -- 99
2019-11-16 09:00:00 -2.1 3 Oeste 8 Oeste 0 -- -- 99
2019-11-16 08:00:00 -2.7 4 Oeste 9 Noroeste 0 -- -- 99
2019-11-16 07:00:00 -2.4 4 Noroeste 9 Oeste 0 -- -- 99
2019-11-16 06:00:00 -2.4 3 Noroeste 6 Oeste 0 -- -- 99
2019-11-16 05:00:00 -2.2 2 Este 6 Sudeste 0 -- -- 98
2019-11-16 04:00:00 -1.4 5 Noroeste 9 Noroeste 0 -- -- 98
2019-11-16 03:00:00 -1.3 4 Noroeste 6 Noroeste 0 -- -- 98
2019-11-16 02:00:00 -0.6 0 Calma 5 Este 0 -- -- 98
2019-11-16 01:00:00 -0.1 2 Noroeste 9 Sudoeste 0 -- -- 98
2019-11-16 00:00:00 0 4 Oeste 5 Oeste 0.2 -- -- 98
2019-11-15 23:00:00 0.1 0 Calma 5 Noroeste 0.4 -- -- 98
2019-11-15 22:00:00 0.2 0 Calma 10 Nordeste 1.4 -- -- 97
2019-11-15 21:00:00 0.5 5 Norte 17 Nordeste 1.4 -- -- 97
2019-11-15 20:00:00 0.4 5 Noroeste 7 Noroeste 1.6 -- -- 96
2019-11-15 19:00:00 1.5 3 Oeste 8 Noroeste 1.2 -- -- 95
2019-11-15 18:00:00 2.3 2 Oeste 5 Noroeste 0.2 -- -- 95
2019-11-15 17:00:00 2.7 3 Oeste 6 Este 0.4 -- -- 96
2019-11-15 16:00:00 2.9 5 Este 13 Este 0.2 -- -- 96
2019-11-15 15:00:00 2.7 5 Este 12 Este 0 -- -- 98
2019-11-15 14:00:00 1.9 4 Este 8 Sudeste 0.6 -- -- 96
2019-11-15 13:00:00 1.5 2 Oeste 5 Norte 1.6 -- -- 96
2019-11-15 12:00:00 1.4 3 Norte 10 Noroeste 1.4 -- -- 98
2019-11-15 11:00:00 1 5 Noroeste 9 Este 0.8 -- -- 97
2019-11-15 10:00:00 1.2 3 Norte 19 Oeste 1.4 -- -- 96
2019-11-15 09:00:00 0.9 2 Este 15 Oeste 0.6 -- -- 97
2019-11-15 08:00:00 0.9 8 Oeste 16 Oeste 1 -- -- 97
2019-11-15 07:00:00 1.1 9 Oeste 22 Oeste 0.8 -- -- 96
2019-11-15 06:00:00 0.8 11 Oeste 18 Oeste 1 -- -- 97
2019-11-15 05:00:00 0.2 4 Oeste 6 Oeste 1.2 -- -- 97
2019-11-15 04:00:00 0.4 3 Oeste 9 Oeste 0.8 -- -- 96
2019-11-15 03:00:00 0.4 4 Noroeste 20 Oeste 0.2 -- -- 96
2019-11-15 02:00:00 -1.2 4 Noroeste 12 Noroeste 0 -- -- 97
2019-11-15 01:00:00 -1.3 3 Noroeste 9 Oeste 0 -- -- 96
2019-11-15 00:00:00 -0.7 4 Noroeste 10 Sudoeste 0 -- -- 96
2019-11-14 23:00:00 0.2 8 Oeste 15 Sudoeste 0 -- -- 94
2019-11-14 22:00:00 1.2 3 Sudeste 10 Norte 0 -- -- 94
2019-11-14 21:00:00 1.6 4 Oeste 8 Oeste 0 -- -- 94
2019-11-14 20:00:00 1.6 6 Norte 14 Oeste 0.2 -- -- 93
2019-11-14 19:00:00 2.7 10 Norte 21 Noroeste 0.4 -- -- 86
2019-11-14 18:00:00 4.1 7 Norte 13 Oeste 0 -- -- 81
2019-11-14 17:00:00 4.6 5 Noroeste 18 Sudoeste 0 -- -- 81
2019-11-14 16:00:00 5 9 Oeste 21 Oeste 0 -- -- 80
2019-11-14 15:00:00 2.7 9 Oeste 35 Sudoeste 0.4 -- -- 90
2019-11-14 14:00:00 5.6 13 Sudoeste 30 Sudoeste 0 -- -- 66
2019-11-14 13:00:00 5.5 21 Sudoeste 36 Sudoeste 0 -- -- 69
2019-11-14 12:00:00 6.6 13 Sudoeste 29 Sudoeste 0 -- -- 67
2019-11-14 11:00:00 5.4 5 Sudoeste 18 Oeste 0 -- -- 71
2019-11-14 10:00:00 2.2 4 Nordeste 12 Este 0 -- -- 95
2019-11-14 09:00:00 0.1 3 Sudoeste 9 Noroeste 0 -- -- 98
2019-11-14 08:00:00 -0.1 4 Nordeste 12 Norte 0 -- -- 97
2019-11-14 07:00:00 -0.1 5 Noroeste 13 Oeste 0 -- -- 96
2019-11-14 06:00:00 0.5 3 Noroeste 8 Este 0 -- -- 96
2019-11-14 05:00:00 0.7 4 Este 8 Este 0.4 -- -- 95
2019-11-14 04:00:00 1.2 7 Este 17 Sudeste 2 -- -- 93
2019-11-14 03:00:00 2.8 12 Oeste 42 Sudoeste 2 -- -- 87
2019-11-14 02:00:00 7 22 Sudoeste 50 Sudoeste 0 -- -- 78
2019-11-14 01:00:00 7.6 17 Sudoeste 42 Sudoeste 0 -- -- 73
2019-11-14 00:00:00 7.8 23 Sudoeste 41 Sudoeste 0 -- -- 73
2019-11-13 23:00:00 7.2 14 Oeste 33 Oeste 0 -- -- 76
2019-11-13 22:00:00 7.4 19 Oeste 39 Sudoeste 0 -- -- 76
2019-11-13 21:00:00 8.5 22 Oeste 36 Sudoeste 0 -- -- 74
2019-11-13 20:00:00 9.4 13 Oeste 22 Oeste 0 -- -- 71
2019-11-13 19:00:00 9.9 11 Oeste 21 Oeste 0 -- -- 71
2019-11-13 18:00:00 9.6 4 Oeste 19 Sudoeste 0 -- -- 74
2019-11-13 17:00:00 10.4 5 Este 23 Este 0 -- -- 76
2019-11-13 16:00:00 10.9 13 Este 19 Sudeste 0 -- -- 76
2019-11-13 15:00:00 10.1 11 Sudeste 15 Sudeste 0 -- -- 80
2019-11-13 14:00:00 10.7 4 Norte 16 Noroeste 0 -- -- 79
2019-11-13 13:00:00 9.8 6 Norte 19 Norte 0 -- -- 79
2019-11-13 12:00:00 9.9 6 Norte 19 Noroeste 0 -- -- 80
2019-11-13 11:00:00 8.1 4 Este 15 Noroeste 0 -- -- 92
2019-11-13 10:00:00 6.8 6 Noroeste 12 Noroeste 0 -- -- 92
2019-11-13 09:00:00 6.1 6 Nordeste 14 Este 0.2 -- -- 93
2019-11-13 08:00:00 6.3 4 Norte 14 Noroeste 0.2 -- -- 90
2019-11-13 07:00:00 6.7 4 Sur 15 Nordeste 0.4 -- -- 91
2019-11-13 06:00:00 7 5 Nordeste 18 Este 0 -- -- 89
2019-11-13 05:00:00 7.3 4 Sudeste 15 Norte 0.2 -- -- 93
2019-11-13 04:00:00 7.3 8 Noroeste 25 Noroeste 0.4 -- -- 95
2019-11-13 03:00:00 7.4 2 Noroeste 9 Oeste 1.6 -- -- 95
2019-11-13 02:00:00 7.3 3 Noroeste 11 Oeste 1.2 -- -- 95
2019-11-13 01:00:00 7.5 6 Noroeste 14 Noroeste 1 -- -- 93
2019-11-13 00:00:00 7.4 5 Oeste 15 Noroeste 0.8 -- -- 93
2019-11-12 23:00:00 7.5 0 Calma 11 Sudoeste 0.4 -- -- 90
2019-11-12 22:00:00 7.4 0 Calma 23 Sudoeste 0 -- -- 90
2019-11-12 21:00:00 7.5 8 Sudoeste 24 Sudoeste 0.4 -- -- 90
2019-11-12 20:00:00 7.2 3 Sudeste 23 Oeste 0 -- -- 88
2019-11-12 19:00:00 7 6 Sudoeste 26 Sudoeste 0.4 -- -- 90
2019-11-12 18:00:00 7.6 14 Sudoeste 27 Sudoeste 0.2 -- -- 83
2019-11-12 17:00:00 8.7 5 Sudoeste 22 Sudoeste 0 -- -- 75
2019-11-12 16:00:00 9.8 12 Sudoeste 25 Sudoeste 0 -- -- 67
2019-11-12 15:00:00 10.8 8 Sudoeste 20 Sudoeste 0 -- -- 64
2019-11-12 14:00:00 11.5 8 Sudoeste 20 Sudoeste 0 -- -- 63
2019-11-12 13:00:00 10.7 7 Sudoeste 16 Sur 0 -- -- 62
2019-11-12 12:00:00 8.3 4 Sudoeste 8 Sudoeste 0 -- -- 77
2019-11-12 11:00:00 5.1 2 Sudeste 6 Sudoeste 0 -- -- 98
2019-11-12 10:00:00 3.2 2 Sudeste 5 Noroeste 0 -- -- 99
2019-11-12 09:00:00 2 0 Calma 5 Noroeste 0 -- -- 98
2019-11-12 08:00:00 1.8 3 Oeste 9 Noroeste 0 -- -- 98
2019-11-12 07:00:00 1.8 2 Este 12 Oeste 0 -- -- 98
2019-11-12 06:00:00 2 5 Oeste 10 Sudoeste 0 -- -- 98
2019-11-12 05:00:00 2 6 Oeste 12 Oeste 0 -- -- 97
2019-11-12 04:00:00 2 4 Oeste 8 Oeste 0 -- -- 97
2019-11-12 03:00:00 1.9 3 Norte 9 Oeste 0 -- -- 97
2019-11-12 02:00:00 1.9 4 Oeste 8 Norte 0 -- -- 96
2019-11-12 01:00:00 2 4 Noroeste 9 Sudoeste 0 -- -- 96
2019-11-12 00:00:00 2.1 3 Oeste 16 Noroeste 0 -- -- 93
2019-11-11 23:00:00 3.6 7 Norte 12 Norte 0 -- -- 92
2019-11-11 22:00:00 3.1 4 Norte 9 Sudeste 0 -- -- 94
2019-11-11 21:00:00 4.2 2 Sudeste 21 Norte 0 -- -- 92
2019-11-11 20:00:00 4.8 8 Norte 20 Norte 0.2 -- -- 89
2019-11-11 19:00:00 5.5 2 Norte 5 Sur 0.4 -- -- 92
2019-11-11 18:00:00 5.7 6 Este 10 Sudeste 0 -- -- 91
2019-11-11 17:00:00 6.2 6 Sur 22 Norte 0.8 -- -- 90
2019-11-11 16:00:00 6.7 10 Noroeste 36 Noroeste 0.8 -- -- 90
2019-11-11 15:00:00 7.1 21 Noroeste 56 Noroeste 0 -- -- 84
2019-11-11 14:00:00 7.6 23 Noroeste 51 Noroeste 0.4 -- -- 84
2019-11-11 13:00:00 9.4 25 Noroeste 57 Noroeste 0 -- -- 80
2019-11-11 12:00:00 8.8 16 Noroeste 28 Noroeste 0 -- -- 94
2019-11-11 11:00:00 5 10 Oeste 18 Sudoeste 0 -- -- 98
2019-11-11 10:00:00 3.9 10 Noroeste 16 Noroeste 0 -- -- 99
2019-11-11 09:00:00 2.5 3 Oeste 7 Oeste 0 -- -- 99
2019-11-11 08:00:00 2 3 Noroeste 8 Noroeste 0 -- -- 99
2019-11-11 07:00:00 1.7 3 Oeste 6 Noroeste 0 -- -- 99
2019-11-11 06:00:00 1.2 2 Oeste 6 Oeste 0 -- -- 99
2019-11-11 05:00:00 0.9 3 Oeste 6 Oeste 0 -- -- 98
2019-11-11 04:00:00 0.8 5 Oeste 6 Oeste 0 -- -- 99
2019-11-11 03:00:00 0.7 2 Oeste 6 Noroeste 0 -- -- 98
2019-11-11 02:00:00 0.8 0 Calma 5 Oeste 0 -- -- 98
2019-11-11 01:00:00 0.8 0 Calma 8 Oeste 0 -- -- 98
2019-11-11 00:00:00 1.1 5 Oeste 9 Noroeste 0.2 -- -- 98
2019-11-10 23:00:00 1.6 5 Nordeste 8 Noroeste 0.4 -- -- 98
2019-11-10 22:00:00 1.5 0 Calma 13 Sur 0.2 -- -- 97
2019-11-10 21:00:00 1.5 3 Oeste 10 Noroeste 0.4 -- -- 97
2019-11-10 20:00:00 1.1 3 Norte 11 Nordeste 0.4 -- -- 97
2019-11-10 19:00:00 1.3 5 Este 13 Este 0.6 -- -- 97
2019-11-10 18:00:00 0.7 2 Nordeste 10 Este 0 -- -- 97
2019-11-10 17:00:00 0.8 4 Nordeste 10 Este 0.6 -- -- 97
2019-11-10 16:00:00 0.5 2 Nordeste 5 Oeste 4.4 -- -- 97
2019-11-10 15:00:00 0.4 4 Noroeste 6 Noroeste 3.2 -- -- 96
2019-11-10 14:00:00 0.9 4 Norte 9 Sudoeste 2.2 -- -- 96
2019-11-10 13:00:00 1.9 4 Oeste 21 Oeste 3 -- -- 96
2019-11-10 12:00:00 1.6 3 Sudoeste 8 Oeste 1 -- -- 97
2019-11-10 11:00:00 0.8 3 Nordeste 6 Este 2.4 -- -- 97
2019-11-10 10:00:00 1.3 0 Calma 8 Oeste 2.4 -- -- 96
2019-11-10 09:00:00 1.3 2 Sudoeste 23 Oeste 2.4 -- -- 96
2019-11-10 08:00:00 1 3 Nordeste 10 Noroeste 0.2 -- -- 96
2019-11-10 07:00:00 1.1 3 Norte 7 Noroeste 0 -- -- 96
2019-11-10 06:00:00 0.7 4 Sudeste 8 Noroeste 0 -- -- 95
2019-11-10 05:00:00 0.9 2 Oeste 12 Oeste 0.2 -- -- 93
2019-11-10 04:00:00 1.8 6 Oeste 18 Oeste 0 -- -- 90
2019-11-10 03:00:00 2.1 0 Calma 18 Noroeste 0 -- -- 92
2019-11-10 02:00:00 2.4 6 Oeste 23 Oeste 0.2 -- -- 91
2019-11-10 01:00:00 2.1 3 Sudoeste 17 Oeste 0.6 -- -- 93
2019-11-10 00:00:00 3 8 Oeste 27 Oeste 1.6 -- -- 91
2019-11-09 23:00:00 3.6 9 Norte 26 Oeste 2 -- -- 89
2019-11-09 22:00:00 3.9 6 Sudoeste 28 Noroeste 3.8 -- -- 89
2019-11-09 21:00:00 5.6 16 Noroeste 31 Noroeste 1.6 -- -- 85
2019-11-09 20:00:00 7.6 8 Norte 25 Noroeste 0 -- -- 81
2019-11-09 19:00:00 7.4 6 Noroeste 15 Noroeste 0 -- -- 81
2019-11-09 18:00:00 8.4 7 Oeste 26 Sudoeste 0 -- -- 78
2019-11-09 17:00:00 10.1 16 Oeste 26 Oeste 0 -- -- 73
2019-11-09 16:00:00 9.1 12 Sudoeste 30 Oeste 0 -- -- 76
2019-11-09 15:00:00 9.7 15 Oeste 36 Oeste 0 -- -- 74
2019-11-09 14:00:00 7.8 16 Sudoeste 37 Sudoeste 0 -- -- 83
2019-11-09 13:00:00 6.8 20 Oeste 37 Sudoeste 0 -- -- 84
2019-11-09 12:00:00 5.9 12 Oeste 31 Oeste 0 -- -- 86
2019-11-09 11:00:00 5 10 Oeste 21 Oeste 0.2 -- -- 89
2019-11-09 10:00:00 4.5 3 Oeste 20 Oeste 0.6 -- -- 90
2019-11-09 09:00:00 4.1 3 Noroeste 6 Nordeste 0 -- -- 94
2019-11-09 08:00:00 3.7 2 Nordeste 8 Noroeste 0 -- -- 93
2019-11-09 07:00:00 3.4 4 Este 7 Noroeste 0 -- -- 94
2019-11-09 06:00:00 3.4 3 Noroeste 9 Oeste 0 -- -- 93
2019-11-09 05:00:00 3.7 3 Norte 10 Oeste 0 -- -- 90
2019-11-09 04:00:00 3.5 4 Noroeste 8 Oeste 0 -- -- 94
2019-11-09 03:00:00 3.7 2 Oeste 8 Noroeste 0.2 -- -- 94
2019-11-09 02:00:00 3.8 0 Calma 5 Oeste 0.2 -- -- 94
2019-11-09 01:00:00 3.8 4 Norte 6 Nordeste 0.4 -- -- 93
2019-11-09 00:00:00 4.1 4 Oeste 10 Noroeste 0.6 -- -- 90
2019-11-08 23:00:00 4.3 3 Oeste 10 Noroeste 0.2 -- -- 86
2019-11-08 22:00:00 5.1 5 Oeste 17 Oeste 0 -- -- 76
2019-11-08 21:00:00 5.1 9 Oeste 41 Oeste 0 -- -- 76
2019-11-08 20:00:00 5.4 14 Oeste 31 Noroeste 0 -- -- 70
2019-11-08 19:00:00 6.3 15 Oeste 36 Oeste 0 -- -- 65
2019-11-08 18:00:00 6.8 16 Noroeste 48 Noroeste 0 -- -- 61
2019-11-08 17:00:00 8.2 23 Noroeste 45 Noroeste 0 -- -- 59
2019-11-08 16:00:00 9.3 23 Noroeste 42 Noroeste 0 -- -- 54
2019-11-08 15:00:00 9.8 17 Noroeste 38 Noroeste 0 -- -- 55
2019-11-08 14:00:00 8.2 20 Noroeste 35 Noroeste 0 -- -- 64
2019-11-08 13:00:00 7.6 5 Sudoeste 41 Oeste 0 -- -- 72
2019-11-08 12:00:00 7 11 Oeste 30 Sudoeste 0 -- -- 78
2019-11-08 11:00:00 5.5 17 Oeste 31 Oeste 0.2 -- -- 88
2019-11-08 10:00:00 3.4 16 Oeste 29 Oeste 0 -- -- 91
2019-11-08 09:00:00 2.5 9 Oeste 26 Oeste 0.2 -- -- 91
2019-11-08 08:00:00 2.2 15 Noroeste 31 Noroeste 0 -- -- 91
2019-11-08 07:00:00 2.1 10 Oeste 17 Oeste 0.4 -- -- 92
2019-11-08 06:00:00 1.7 5 Noroeste 16 Oeste 0 -- -- 90
2019-11-08 05:00:00 1.7 5 Noroeste 20 Oeste 0.2 -- -- 89
2019-11-08 04:00:00 1.6 6 Oeste 28 Oeste 0.2 -- -- 90
2019-11-08 03:00:00 2.2 15 Oeste 26 Oeste 0 -- -- 83
2019-11-08 02:00:00 2.6 16 Oeste 28 Oeste 0 -- -- 79
2019-11-08 01:00:00 2.7 8 Oeste 24 Oeste 0 -- -- 76
2019-11-08 00:00:00 2.5 6 Oeste 17 Oeste 0 -- -- 79
2019-11-07 23:00:00 2.7 6 Oeste 24 Oeste 0 -- -- 78
2019-11-07 22:00:00 2.6 9 Oeste 18 Oeste 0 -- -- 79
2019-11-07 21:00:00 2.8 0 Calma 17 Noroeste 0 -- -- 78
2019-11-07 20:00:00 3.2 5 Oeste 13 Noroeste 0 -- -- 72
2019-11-07 19:00:00 4.7 3 Noroeste 28 Oeste 0 -- -- 69
2019-11-07 18:00:00 6.5 18 Oeste 42 Sudoeste 0 -- -- 53
2019-11-07 17:00:00 7.9 22 Oeste 45 Oeste 0 -- -- 53
2019-11-07 16:00:00 8.6 23 Oeste 45 Oeste 0 -- -- 62
2019-11-07 15:00:00 7.6 20 Oeste 45 Oeste 0 -- -- 69
2019-11-07 14:00:00 10.3 17 Sudoeste 38 Sudoeste 0 -- -- 54
2019-11-07 13:00:00 10.6 24 Oeste 42 Sudoeste 0 -- -- 52
2019-11-07 12:00:00 10.3 12 Sudoeste 26 Sudoeste 0 -- -- 57
2019-11-07 11:00:00 8 3 Sudoeste 12 Este 0 -- -- 76
2019-11-07 10:00:00 6.1 3 Sudoeste 6 Sur 0 -- -- 91
2019-11-07 09:00:00 5.1 3 Oeste 8 Norte 0 -- -- 94
2019-11-07 08:00:00 5.3 4 Noroeste 8 Noroeste 0 -- -- 94
2019-11-07 07:00:00 5.7 0 Calma 9 Noroeste 0 -- -- 92
2019-11-07 06:00:00 6.6 5 Norte 9 Nordeste 0 -- -- 91
2019-11-07 05:00:00 6.8 3 Nordeste 12 Noroeste 0.2 -- -- 91
2019-11-07 04:00:00 7.4 5 Este 26 Norte 1.2 -- -- 90
2019-11-07 03:00:00 8.7 9 Noroeste 18 Oeste 0.4 -- -- 93
2019-11-07 02:00:00 9.1 6 Noroeste 18 Oeste 0 -- -- 92
2019-11-07 01:00:00 9.3 7 Oeste 23 Sudoeste 0 -- -- 89
2019-11-07 00:00:00 9.3 9 Sudoeste 37 Sudoeste 0 -- -- 88
2019-11-06 23:00:00 9.2 13 Sudoeste 27 Sudoeste 0 -- -- 88
2019-11-06 22:00:00 9.1 13 Sudoeste 28 Sudoeste 0 -- -- 88
2019-11-06 21:00:00 9.4 6 Oeste 21 Sur 0.4 -- -- 85
2019-11-06 20:00:00 10.1 9 Sudoeste 22 Sudoeste 0 -- -- 74
2019-11-06 19:00:00 10 14 Sudoeste 22 Sudoeste 0 -- -- 73
2019-11-06 18:00:00 10.1 13 Oeste 25 Oeste 0 -- -- 73
2019-11-06 17:00:00 11.2 16 Oeste 32 Sudoeste 0 -- -- 67
2019-11-06 16:00:00 12.1 17 Sudoeste 38 Sudoeste 0 -- -- 63
2019-11-06 15:00:00 11.3 15 Sudoeste 33 Oeste 0 -- -- 59
2019-11-06 14:00:00 12.1 16 Sudoeste 31 Sudoeste 0 -- -- 64
2019-11-06 13:00:00 9.4 8 Oeste 18 Sudoeste 0 -- -- 74
2019-11-06 12:00:00 7.7 5 Sur 11 Sudoeste 0 -- -- 80
2019-11-06 11:00:00 6.3 0 Calma 5 Este 0 -- -- 96
2019-11-06 10:00:00 4.6 0 Calma 6 Sudoeste 0 -- -- 97
2019-11-06 09:00:00 4.2 0 Calma 8 Noroeste 0 -- -- 97
2019-11-06 08:00:00 4.5 2 Nordeste 7 Norte 0 -- -- 96
2019-11-06 07:00:00 4.7 3 Sudoeste 7 Noroeste 0 -- -- 96
2019-11-06 06:00:00 4.8 0 Calma 9 Noroeste 0 -- -- 95
2019-11-06 05:00:00 5 4 Oeste 6 Noroeste 0.2 -- -- 94
2019-11-06 04:00:00 6 2 Sudeste 6 Nordeste 1.4 -- -- 92
2019-11-06 03:00:00 6.3 3 Sudoeste 9 Sudoeste 0 -- -- 88
2019-11-06 02:00:00 6.3 2 Norte 28 Noroeste 0 -- -- 85
2019-11-06 01:00:00 7.7 13 Noroeste 27 Noroeste 0 -- -- 80
2019-11-06 00:00:00 6.5 4 Noroeste 31 Noroeste 0 -- -- 90
2019-11-05 23:00:00 6.1 6 Oeste 13 Noroeste 0.2 -- -- 93
2019-11-05 22:00:00 6.1 3 Oeste 12 Oeste 0 -- -- 94
2019-11-05 21:00:00 6.4 2 Sudoeste 12 Norte 0.4 -- -- 93
2019-11-05 20:00:00 6.7 3 Sudoeste 15 Noroeste 0.6 -- -- 92
2019-11-05 19:00:00 7.1 2 Sudeste 5 Noroeste 0 -- -- 89
2019-11-05 18:00:00 7.7 3 Oeste 16 Oeste 0 -- -- 84
2019-11-05 17:00:00 8.6 4 Oeste 24 Oeste 1 -- -- 82
2019-11-05 16:00:00 7.9 14 Oeste 36 Oeste 0.6 -- -- 81
2019-11-05 15:00:00 9.6 22 Oeste 44 Oeste 0 -- -- 74
2019-11-05 14:00:00 9.2 20 Oeste 38 Oeste 0 -- -- 76
2019-11-05 13:00:00 8 11 Oeste 32 Oeste 0.8 -- -- 87
2019-11-05 12:00:00 7.8 13 Oeste 37 Oeste 0.8 -- -- 86
2019-11-05 11:00:00 6.8 15 Oeste 33 Sudoeste 2.2 -- -- 88
2019-11-05 10:00:00 6.6 17 Oeste 35 Sudoeste 0 -- -- 83
2019-11-05 09:00:00 6 17 Oeste 32 Oeste 0.2 -- -- 82
2019-11-05 08:00:00 5.1 3 Noroeste 14 Oeste 0 -- -- 82
2019-11-05 07:00:00 4.9 7 Oeste 23 Oeste 0 -- -- 81
2019-11-05 06:00:00 5.2 9 Oeste 19 Oeste 0 -- -- 80
2019-11-05 05:00:00 5.9 8 Sudoeste 21 Oeste 0 -- -- 78
2019-11-05 04:00:00 6 11 Sudoeste 37 Sudoeste 0 -- -- 77
2019-11-05 03:00:00 6.2 15 Sudoeste 34 Oeste 0 -- -- 77
2019-11-05 02:00:00 6.2 14 Oeste 36 Oeste 0 -- -- 76
2019-11-05 01:00:00 6 14 Oeste 33 Oeste 0 -- -- 77
2019-11-05 00:00:00 6.2 17 Oeste 39 Oeste 0 -- -- 77
2019-11-04 23:00:00 6.8 17 Oeste 31 Noroeste 0 -- -- 75
2019-11-04 22:00:00 7.3 17 Oeste 33 Sudoeste 0 -- -- 73
2019-11-04 21:00:00 8 15 Oeste 39 Oeste 0 -- -- 70
2019-11-04 20:00:00 9.3 20 Oeste 45 Oeste 0 -- -- 62
2019-11-04 19:00:00 10.7 21 Oeste 44 Sudoeste 0 -- -- 60
2019-11-04 18:00:00 11.9 17 Oeste 43 Sudoeste 0 -- -- 60
2019-11-04 17:00:00 13.7 21 Oeste 53 Oeste 0 -- -- 58
2019-11-04 16:00:00 14.8 26 Oeste 56 Sudoeste 0 -- -- 56
2019-11-04 15:00:00 15.3 30 Sudoeste 60 Sudoeste 0 -- -- 55
2019-11-04 14:00:00 14 23 Oeste 52 Sudoeste 0 -- -- 69
2019-11-04 13:00:00 13.7 24 Oeste 48 Sudoeste 0.2 -- -- 72
2019-11-04 12:00:00 12.7 23 Sudoeste 58 Sudoeste 0.4 -- -- 85
2019-11-04 11:00:00 12.8 29 Sudoeste 53 Sudoeste 0.2 -- -- 84
2019-11-04 10:00:00 12.7 23 Sudoeste 63 Sudoeste 0 -- -- 83
2019-11-04 09:00:00 11.5 17 Sudoeste 49 Sudoeste 0 -- -- 87
2019-11-04 08:00:00 11.5 19 Sudoeste 60 Sudoeste 0 -- -- 84
2019-11-04 07:00:00 11.4 25 Sudoeste 57 Sudoeste 0 -- -- 85
2019-11-04 06:00:00 11.6 30 Sudoeste 62 Sur 0 -- -- 83
2019-11-04 05:00:00 11.9 26 Sudoeste 60 Sudoeste 0 -- -- 80
2019-11-04 04:00:00 12.3 18 Sudoeste 48 Sudoeste 0 -- -- 82
2019-11-04 03:00:00 13 21 Sudoeste 44 Sudoeste 0 -- -- 79
2019-11-04 02:00:00 12.5 16 Sudoeste 42 Sudoeste 0 -- -- 83
2019-11-04 01:00:00 12.3 12 Sudoeste 39 Sudoeste 0 -- -- 84
2019-11-04 00:00:00 11.9 14 Sudoeste 31 Sudoeste 0 -- -- 86
2019-11-03 23:00:00 11.6 14 Sudoeste 36 Sur 0 -- -- 86
2019-11-03 22:00:00 11.2 14 Sudoeste 44 Sudoeste 0 -- -- 86
2019-11-03 21:00:00 11.5 21 Sudoeste 48 Sudoeste 0 -- -- 80
2019-11-03 20:00:00 11.6 24 Oeste 46 Oeste 0 -- -- 78
2019-11-03 19:00:00 11.6 12 Oeste 48 Sudoeste 0 -- -- 72
2019-11-03 18:00:00 12.4 13 Oeste 30 Sudoeste 0 -- -- 64
2019-11-03 17:00:00 13.4 14 Sudoeste 36 Sudoeste 0 -- -- 60
2019-11-03 16:00:00 15.5 19 Sudoeste 35 Sudoeste 0 -- -- 53
2019-11-03 15:00:00 16 18 Sudoeste 44 Sudoeste 0 -- -- 45
2019-11-03 14:00:00 14.7 24 Oeste 48 Oeste 0 -- -- 46
2019-11-03 13:00:00 14.2 20 Sudoeste 36 Sudoeste 0 -- -- 45
2019-11-03 12:00:00 13 18 Oeste 34 Sudoeste 0 -- -- 51
2019-11-03 11:00:00 11.7 18 Oeste 36 Sudoeste 0 -- -- 54
2019-11-03 10:00:00 9.7 9 Noroeste 20 Oeste 0 -- -- 70
2019-11-03 09:00:00 6.9 7 Este 14 Este 0 -- -- 89
2019-11-03 08:00:00 5.5 0 Calma 17 Noroeste 0 -- -- 88
2019-11-03 07:00:00 6.8 12 Noroeste 32 Noroeste 0 -- -- 85
2019-11-03 06:00:00 8.4 16 Noroeste 32 Noroeste 2 -- -- 86
2019-11-03 05:00:00 10.8 19 Oeste 37 Oeste 0 -- -- 88
2019-11-03 04:00:00 11 21 Oeste 53 Sudoeste 0 -- -- 84
2019-11-03 03:00:00 10.7 18 Sudoeste 56 Sudoeste 0 -- -- 84
2019-11-03 02:00:00 10.5 20 Sudoeste 58 Sudoeste 0 -- -- 84
2019-11-03 01:00:00 11.1 28 Sudoeste 52 Sudoeste 0 -- -- 79
2019-11-03 00:00:00 11.2 28 Sudoeste 68 Sudoeste 0.2 -- -- 76
2019-11-02 23:00:00 11.2 15 Sudoeste 51 Sudoeste 0 -- -- 78
2019-11-02 22:00:00 11.5 23 Sudoeste 49 Oeste 0 -- -- 79
2019-11-02 21:00:00 12.1 24 Sudoeste 54 Sudoeste 0 -- -- 72
2019-11-02 20:00:00 12.1 23 Sudoeste 41 Sudoeste 0 -- -- 74
2019-11-02 19:00:00 12 21 Sudoeste 43 Sudoeste 0 -- -- 76
2019-11-02 18:00:00 12.4 14 Sudoeste 36 Sudoeste 0.2 -- -- 79
2019-11-02 17:00:00 13.7 15 Sudoeste 33 Oeste 0 -- -- 65
2019-11-02 16:00:00 14 17 Oeste 35 Oeste 0 -- -- 67
2019-11-02 15:00:00 14.3 19 Oeste 39 Sudoeste 0 -- -- 68
2019-11-02 14:00:00 14.8 17 Oeste 38 Sudoeste 0 -- -- 62
2019-11-02 13:00:00 14.8 18 Oeste 44 Sudoeste 0 -- -- 65
2019-11-02 12:00:00 14.2 19 Sudoeste 36 Sudoeste 0 -- -- 66
2019-11-02 11:00:00 14.6 19 Oeste 33 Oeste 0 -- -- 71
2019-11-02 10:00:00 15.1 13 Oeste 30 Oeste 0 -- -- 77
2019-11-02 09:00:00 14.5 13 Oeste 34 Sudoeste 0 -- -- 80
2019-11-02 08:00:00 13.6 13 Sudoeste 28 Oeste 0 -- -- 85
2019-11-02 07:00:00 13.9 9 Sudoeste 29 Sudoeste 0 -- -- 85
2019-11-02 06:00:00 14.1 14 Sudoeste 28 Sudoeste 0 -- -- 83
2019-11-02 05:00:00 14.1 10 Sudoeste 27 Sudoeste 0 -- -- 83
2019-11-02 04:00:00 14.3 15 Oeste 38 Sudoeste 0 -- -- 81
2019-11-02 03:00:00 14.3 14 Oeste 33 Sudoeste 0 -- -- 83
2019-11-02 02:00:00 14.2 13 Sudoeste 37 Sudoeste 0 -- -- 85
2019-11-02 01:00:00 14.1 12 Oeste 21 Oeste 0 -- -- 85
2019-11-02 00:00:00 14.1 11 Oeste 35 Sudoeste 0 -- -- 84
2019-11-01 23:00:00 14.9 13 Oeste 30 Sudoeste 0.2 -- -- 81
2019-11-01 22:00:00 14.6 10 Oeste 24 Oeste 0 -- -- 83
2019-11-01 21:00:00 14.2 15 Oeste 34 Sudoeste 0 -- -- 81
2019-11-01 20:00:00 15.5 10 Oeste 26 Oeste 0 -- -- 76
2019-11-01 19:00:00 16.3 8 Noroeste 23 Sudoeste 0 -- -- 79
2019-11-01 18:00:00 17 9 Oeste 38 Oeste 0 -- -- 78
2019-11-01 17:00:00 17.4 6 Oeste 31 Sudoeste 0 -- -- 79
2019-11-01 16:00:00 17.6 10 Oeste 36 Sudoeste 2.2 -- -- 90
2019-11-01 15:00:00 18.5 17 Sudoeste 33 Sudoeste 0 -- -- 77
2019-11-01 14:00:00 18 15 Sudoeste 31 Sudoeste 0 -- -- 80
2019-11-01 13:00:00 17.7 16 Sudoeste 33 Sudoeste 0 -- -- 79
2019-11-01 12:00:00 17.2 14 Sudoeste 30 Sudoeste 0 -- -- 80
2019-11-01 11:00:00 17 13 Sudoeste 32 Sudoeste 0 -- -- 80
2019-11-01 10:00:00 16.7 17 Sudoeste 34 Sudoeste 0 -- -- 79
2019-11-01 09:00:00 15.8 7 Sudoeste 23 Sudoeste 0 -- -- 85
2019-11-01 08:00:00 15.3 7 Oeste 20 Oeste 0 -- -- 86
2019-11-01 07:00:00 15.5 10 Oeste 21 Sudoeste 0 -- -- 86
2019-11-01 06:00:00 14.8 3 Oeste 23 Oeste 0 -- -- 88
2019-11-01 05:00:00 14.8 5 Oeste 13 Noroeste 0 -- -- 88
2019-11-01 04:00:00 15.2 9 Noroeste 14 Noroeste 0 -- -- 87
2019-11-01 03:00:00 15.2 5 Sudoeste 14 Oeste 0 -- -- 86
2019-11-01 02:00:00 15.5 5 Oeste 22 Oeste 0 -- -- 84
2019-11-01 01:00:00 15.6 8 Oeste 20 Sur 0 -- -- 84
2019-11-01 00:00:00 15.6 5 Sudoeste 13 Sudoeste 0 -- -- 83
2019-10-31 23:00:00 15.6 4 Oeste 13 Oeste 0 -- -- 81
2019-10-31 22:00:00 15.8 0 Calma 0 Calma 0 -- -- 80
2019-10-31 21:00:00 14.7 0 Calma 6 Oeste 0 -- -- 83
2019-10-31 20:00:00 14.9 0 Calma 6 Nordeste 0 -- -- 84
2019-10-31 19:00:00 15.7 4 Noroeste 6 Noroeste 0 -- -- 77
2019-10-31 18:00:00 17.3 0 Calma 8 Este 0 -- -- 71
2019-10-31 17:00:00 18.5 5 Este 12 Este 0 -- -- 62
2019-10-31 16:00:00 19.3 9 Este 13 Este 0 -- -- 59
2019-10-31 15:00:00 19.1 4 Noroeste 12 Sudoeste 0 -- -- 57
2019-10-31 14:00:00 20.2 8 Sudoeste 16 Sudoeste 0 -- -- 54
2019-10-31 13:00:00 18.3 4 Este 10 Sudeste 0 -- -- 63
2019-10-31 12:00:00 17.1 3 Este 8 Sudeste 0 -- -- 71
2019-10-31 11:00:00 13.9 2 Sudoeste 8 Sudoeste 0 -- -- 88
2019-10-31 10:00:00 12.6 4 Oeste 6 Oeste 0 -- -- 97
2019-10-31 09:00:00 11.9 2 Sudoeste 4 Sudoeste 0 -- -- 98
2019-10-31 08:00:00 11.6 0 Calma 5 Sudoeste 0 -- -- 98
2019-10-31 07:00:00 11.4 0 Calma 3 Sudeste 0 -- -- 97
2019-10-31 06:00:00 11.6 0 Calma 2 Oeste 0 -- -- 97
2019-10-31 05:00:00 12 0 Calma 3 Oeste 0 -- -- 97
2019-10-31 04:00:00 12.1 0 Calma 2 Oeste 0 -- -- 97
2019-10-31 03:00:00 12.2 0 Calma 5 Nordeste 0 -- -- 96
2019-10-31 02:00:00 12.5 4 Este 14 Este 0 -- -- 95
2019-10-31 01:00:00 12.9 7 Este 15 Sudeste 0 -- -- 94
2019-10-31 00:00:00 13.5 10 Noroeste 15 Noroeste 0 -- -- 90
2019-10-30 23:00:00 14.3 9 Oeste 14 Oeste 0 -- -- 91
2019-10-30 22:00:00 14.4 7 Oeste 12 Oeste 0 -- -- 90
2019-10-30 21:00:00 14.4 7 Oeste 12 Oeste 0 -- -- 90
2019-10-30 20:00:00 14.4 3 Oeste 17 Sudoeste 0 -- -- 88
2019-10-30 19:00:00 14 3 Norte 8 Sur 0 -- -- 90
2019-10-30 18:00:00 14.3 4 Oeste 19 Oeste 0.2 -- -- 87
2019-10-30 17:00:00 15 7 Oeste 20 Sudoeste 0.2 -- -- 83
2019-10-30 16:00:00 16 8 Sudoeste 30 Oeste 0 -- -- 76
2019-10-30 15:00:00 15.8 10 Sudoeste 29 Sudoeste 0 -- -- 77
2019-10-30 14:00:00 15.5 10 Sudoeste 22 Sudoeste 0 -- -- 79
2019-10-30 13:00:00 15.4 6 Sudoeste 26 Sudoeste 0 -- -- 80
2019-10-30 12:00:00 15.2 10 Oeste 26 Sudoeste 0 -- -- 81
2019-10-30 11:00:00 14.2 4 Oeste 13 Oeste 0 -- -- 86
2019-10-30 10:00:00 13.2 2 Oeste 7 Oeste 0 -- -- 94
2019-10-30 09:00:00 12.2 2 Oeste 11 Noroeste 0 -- -- 97
2019-10-30 08:00:00 11.4 5 Oeste 8 Oeste 0 -- -- 98
2019-10-30 07:00:00 9.4 0 Calma 6 Oeste 0 -- -- 98
2019-10-30 06:00:00 8.1 0 Calma 7 Sudoeste 0 -- -- 98
2019-10-30 05:00:00 6.6 0 Calma 8 Oeste 0 -- -- 98
2019-10-30 04:00:00 5.8 4 Oeste 9 Noroeste 0 -- -- 97
2019-10-30 03:00:00 6.3 6 Oeste 9 Noroeste 0 -- -- 97
2019-10-30 02:00:00 6.3 0 Calma 8 Oeste 0 -- -- 97
2019-10-30 01:00:00 6.3 4 Oeste 11 Oeste 0 -- -- 96
2019-10-30 00:00:00 6.5 0 Calma 8 Oeste 0 -- -- 95
2019-10-29 23:00:00 7.3 0 Calma 5 Noroeste 0 -- -- 94
2019-10-29 22:00:00 7.9 3 Noroeste 8 Noroeste 0 -- -- 92
2019-10-29 21:00:00 9 0 Calma 11 Noroeste 0 -- -- 90
2019-10-29 20:00:00 10.8 8 Noroeste 13 Oeste 0 -- -- 83
2019-10-29 19:00:00 13.9 4 Noroeste 12 Sur 0 -- -- 72
2019-10-29 18:00:00 16.5 5 Sur 23 Sudoeste 0 -- -- 62
2019-10-29 17:00:00 18.7 9 Sur 21 Sudoeste 0 -- -- 58
2019-10-29 16:00:00 19 12 Sudoeste 24 Sudoeste 0 -- -- 58
2019-10-29 15:00:00 17.5 8 Sudoeste 18 Sur 0 -- -- 67
2019-10-29 14:00:00 17.5 10 Sudoeste 24 Sur 0 -- -- 66
2019-10-29 13:00:00 17.8 12 Sudoeste 20 Sudoeste 0 -- -- 67
2019-10-29 12:00:00 17 10 Sudoeste 22 Sudoeste 0 -- -- 71
2019-10-29 11:00:00 15.2 8 Oeste 16 Sudoeste 0 -- -- 80
2019-10-29 10:00:00 13.6 0 Calma 7 Oeste 0 -- -- 93
2019-10-29 09:00:00 12 4 Noroeste 8 Norte 0 -- -- 97
2019-10-29 08:00:00 10.3 4 Noroeste 8 Norte 0 -- -- 97
2019-10-29 07:00:00 10.1 0 Calma 6 Noroeste 0 -- -- 96
2019-10-29 06:00:00 10.6 0 Calma 8 Noroeste 0 -- -- 96
2019-10-29 05:00:00 10.2 2 Noroeste 6 Norte 0 -- -- 96
2019-10-29 04:00:00 9.3 0 Calma 7 Sudoeste 0 -- -- 97
2019-10-29 03:00:00 8.6 2 Oeste 8 Sudoeste 0 -- -- 94
2019-10-29 02:00:00 9.2 0 Calma 6 Noroeste 0 -- -- 94
2019-10-29 01:00:00 9.4 5 Oeste 11 Noroeste 0 -- -- 93
2019-10-29 00:00:00 10.3 8 Noroeste 11 Oeste 0 -- -- 91
2019-10-28 23:00:00 11.1 0 Calma 4 Sudeste 0 -- -- 87
2019-10-28 22:00:00 12.5 0 Calma 6 Este 0 -- -- 82
2019-10-28 21:00:00 13.1 0 Calma 10 Sudoeste 0 -- -- 79
2019-10-28 20:00:00 13.9 3 Nordeste 8 Noroeste 0 -- -- 74
2019-10-28 19:00:00 16.6 6 Noroeste 26 Sudoeste 0 -- -- 61
2019-10-28 18:00:00 18.3 11 Oeste 24 Sudoeste 0 -- -- 55
2019-10-28 17:00:00 20.3 11 Sudoeste 28 Sur 0 -- -- 49
2019-10-28 16:00:00 21.9 12 Sudoeste 26 Sudoeste 0 -- -- 46
2019-10-28 15:00:00 21.9 14 Sudoeste 28 Oeste 0 -- -- 44
2019-10-28 14:00:00 22.4 12 Sudoeste 32 Sudoeste 0 -- -- 46
2019-10-28 13:00:00 21.1 15 Sudoeste 32 Sudoeste 0 -- -- 49
2019-10-28 12:00:00 20.2 15 Sudoeste 28 Oeste 0 -- -- 49
2019-10-28 11:00:00 18.8 7 Oeste 14 Oeste 0 -- -- 53
2019-10-28 10:00:00 15.4 2 Noroeste 10 Oeste 0 -- -- 70
2019-10-28 09:00:00 10.6 5 Oeste 6 Oeste 0 -- -- 92
2019-10-28 08:00:00 10.5 6 Oeste 9 Noroeste 0 -- -- 90
2019-10-28 07:00:00 10.4 5 Oeste 10 Oeste 0 -- -- 90
2019-10-28 06:00:00 10.6 3 Oeste 12 Noroeste 0 -- -- 89
2019-10-28 05:00:00 10.5 0 Calma 8 Oeste 0 -- -- 90
2019-10-28 04:00:00 11.4 5 Oeste 9 Noroeste 0 -- -- 84
2019-10-28 03:00:00 10.8 4 Norte 10 Noroeste 0 -- -- 89
2019-10-28 02:00:00 10.2 3 Noroeste 7 Noroeste 0 -- -- 95
2019-10-28 01:00:00 9.8 4 Noroeste 9 Oeste 0 -- -- 94
2019-10-28 00:00:00 9.9 2 Nordeste 8 Oeste 0 -- -- 93
2019-10-27 23:00:00 10.4 3 Noroeste 11 Noroeste 0 -- -- 91
2019-10-27 22:00:00 10.8 3 Noroeste 6 Norte 0 -- -- 89
2019-10-27 21:00:00 11.4 0 Calma 7 Nordeste 0 -- -- 85
2019-10-27 20:00:00 13.2 0 Calma 7 Este 0 -- -- 79
2019-10-27 19:00:00 15.4 4 Norte 11 Sudoeste 0 -- -- 70
2019-10-27 18:00:00 16.8 5 Sudoeste 17 Sudoeste 0 -- -- 64
2019-10-27 17:00:00 18.7 4 Sur 18 Sudoeste 0 -- -- 55
2019-10-27 16:00:00 19.8 6 Sudoeste 20 Sudoeste 0 -- -- 49
2019-10-27 15:00:00 18.8 9 Sudoeste 23 Sudoeste 0 -- -- 53
2019-10-27 14:00:00 18.9 6 Oeste 14 Sudoeste 0 -- -- 57
2019-10-27 13:00:00 18.1 8 Oeste 14 Oeste 0 -- -- 61
2019-10-27 12:00:00 17.1 0 Calma 5 Este 0 -- -- 63
2019-10-27 11:00:00 13 2 Sur 4 Sur 0 -- -- 84
2019-10-27 10:00:00 8.5 3 Oeste 4 Oeste 0 -- -- 98
2019-10-27 09:00:00 6.8 2 Este 6 Sudoeste 0 -- -- 98
2019-10-27 08:00:00 5.8 3 Oeste 6 Sudoeste 0 -- -- 97
2019-10-27 07:00:00 5.8 0 Calma 6 Noroeste 0 -- -- 97
2019-10-27 06:00:00 5.9 0 Calma 9 Oeste 0 -- -- 97
2019-10-27 05:00:00 6.1 0 Calma 9 Noroeste 0 -- -- 97
2019-10-27 04:00:00 6.3 3 Noroeste 8 Norte 0 -- -- 97
2019-10-27 03:00:00 6.1 9 Noroeste 13 Oeste 0 -- -- 97
2019-10-27 02:00:00 6 2 Sudoeste 13 Noroeste 0 -- -- 96
2019-10-27 01:00:00 6.4 8 Oeste 12 Noroeste 0 -- -- 94
2019-10-27 00:00:00 7.4 0 Calma 9 Noroeste 0 -- -- 93
2019-10-26 23:00:00 8 5 Oeste 9 Sudoeste 0 -- -- 91
2019-10-26 22:00:00 9.4 4 Noroeste 10 Norte 0 -- -- 87
2019-10-26 21:00:00 11.8 3 Sudeste 9 Oeste 0 -- -- 79
2019-10-26 20:00:00 15.3 3 Noroeste 11 Sudoeste 0 -- -- 66
2019-10-26 19:00:00 18.6 5 Sudoeste 19 Sudoeste 0 -- -- 53
2019-10-26 18:00:00 20.4 9 Sudoeste 26 Sudoeste 0 -- -- 49
2019-10-26 17:00:00 21.6 12 Sudoeste 27 Sudoeste 0 -- -- 46
2019-10-26 16:00:00 21.6 12 Sudoeste 27 Sudoeste 0 -- -- 46
2019-10-26 15:00:00 21.3 13 Sudoeste 28 Sudoeste 0 -- -- 46
2019-10-26 14:00:00 20.6 11 Sudoeste 30 Sudoeste 0 -- -- 50
2019-10-26 13:00:00 19.6 11 Sudoeste 25 Sudoeste 0 -- -- 54
2019-10-26 12:00:00 17.7 5 Sudoeste 9 Sudoeste 0 -- -- 65
2019-10-26 11:00:00 13 0 Calma 5 Oeste 0 -- -- 89
2019-10-26 10:00:00 8.3 4 Oeste 8 Oeste 0 -- -- 96
2019-10-26 09:00:00 5.4 3 Nordeste 9 Oeste 0 -- -- 96
2019-10-26 08:00:00 5.9 3 Noroeste 10 Noroeste 0 -- -- 94
2019-10-26 07:00:00 6.7 6 Oeste 12 Oeste 0 -- -- 94
2019-10-26 06:00:00 5.3 3 Noroeste 9 Oeste 0 -- -- 96
2019-10-26 05:00:00 5.7 0 Calma 5 Oeste 0 -- -- 96
2019-10-26 04:00:00 6 0 Calma 9 Sudoeste 0 -- -- 96
2019-10-26 03:00:00 6.3 4 Este 9 Oeste 0 -- -- 96
2019-10-26 02:00:00 6.4 0 Calma 9 Noroeste 0 -- -- 95
2019-10-26 01:00:00 6.7 2 Noroeste 6 Oeste 0 -- -- 93
2019-10-26 00:00:00 7.9 0 Calma 6 Este 0 -- -- 92
2019-10-25 23:00:00 8.5 3 Oeste 9 Noroeste 0 -- -- 88
2019-10-25 22:00:00 10.2 5 Noroeste 11 Noroeste 0 -- -- 83
2019-10-25 21:00:00 12.6 6 Noroeste 12 Oeste 0 -- -- 72
2019-10-25 20:00:00 13.6 2 Sudeste 15 Sudoeste 0 -- -- 71
2019-10-25 19:00:00 16.1 8 Sudoeste 19 Sudoeste 0 -- -- 63
2019-10-25 18:00:00 17.8 10 Sudoeste 23 Sudoeste 0 -- -- 56
2019-10-25 17:00:00 19 12 Sudoeste 25 Sur 0 -- -- 53
2019-10-25 16:00:00 18.5 12 Sudoeste 25 Sudoeste 0 -- -- 56
2019-10-25 15:00:00 17.8 11 Sudoeste 19 Sur 0 -- -- 59
2019-10-25 14:00:00 15.8 6 Sur 21 Sur 0 -- -- 67
2019-10-25 13:00:00 14.4 13 Sudoeste 24 Sudoeste 0 -- -- 73
2019-10-25 12:00:00 13.8 11 Oeste 21 Oeste 0 -- -- 75
2019-10-25 11:00:00 14 4 Oeste 10 Sudoeste 0 -- -- 74
2019-10-25 10:00:00 11.6 3 Norte 8 Sudoeste 0 -- -- 84
2019-10-25 09:00:00 9.6 3 Oeste 9 Sudoeste 0 -- -- 92
2019-10-25 08:00:00 10.3 4 Sur 19 Sur 0 -- -- 90
2019-10-25 07:00:00 10.6 5 Nordeste 12 Sur 0 -- -- 90
2019-10-25 06:00:00 10.5 4 Sudeste 12 Sur 0 -- -- 91
2019-10-25 05:00:00 10.8 7 Sudeste 17 Sudoeste 0 -- -- 91
2019-10-25 04:00:00 10.9 7 Oeste 19 Oeste 0 -- -- 90
2019-10-25 03:00:00 11 2 Sur 17 Sudoeste 0 -- -- 89
2019-10-25 02:00:00 11.3 3 Sudoeste 12 Sudeste 0 -- -- 90
2019-10-25 01:00:00 11 2 Sudoeste 9 Sur 0 -- -- 94
2019-10-25 00:00:00 10.9 0 Calma 5 Noroeste 0 -- -- 94
2019-10-24 23:00:00 10.9 0 Calma 6 Noroeste 0 -- -- 93
2019-10-24 22:00:00 10.8 0 Calma 7 Noroeste 0 -- -- 91
2019-10-24 21:00:00 11.4 4 Noroeste 8 Noroeste 0 -- -- 87
2019-10-24 20:00:00 12.4 0 Calma 7 Oeste 0 -- -- 81
2019-10-24 19:00:00 13.5 5 Sudoeste 18 Oeste 0 -- -- 76
2019-10-24 18:00:00 13.7 10 Sudoeste 23 Sudoeste 0 -- -- 74
2019-10-24 17:00:00 14.4 9 Sudoeste 24 Oeste 0 -- -- 73
2019-10-24 16:00:00 14.1 12 Oeste 26 Sudoeste 0 -- -- 73
2019-10-24 15:00:00 12.7 8 Oeste 18 Sudoeste 0 -- -- 76
2019-10-24 14:00:00 11.4 10 Oeste 27 Oeste 0 -- -- 79
2019-10-24 13:00:00 11.2 6 Oeste 13 Sudoeste 0 -- -- 77
2019-10-24 12:00:00 9 5 Oeste 14 Oeste 0 -- -- 82
2019-10-24 11:00:00 7.9 3 Oeste 8 Noroeste 0 -- -- 93
2019-10-24 10:00:00 6.1 5 Noroeste 8 Noroeste 0 -- -- 98
2019-10-24 09:00:00 5.4 2 Noroeste 9 Este 0 -- -- 97
2019-10-24 08:00:00 5 0 Calma 9 Noroeste 0 -- -- 97
2019-10-24 07:00:00 5.1 3 Norte 8 Oeste 0 -- -- 96
2019-10-24 06:00:00 5.6 3 Noroeste 10 Nordeste 0.2 -- -- 95
2019-10-24 05:00:00 5.9 0 Calma 10 Oeste 2 -- -- 96
2019-10-24 04:00:00 6.4 3 Oeste 9 Sudoeste 2.6 -- -- 96
2019-10-24 03:00:00 6.7 4 Sudoeste 9 Sudoeste 2.8 -- -- 95
2019-10-24 02:00:00 7.1 3 Este 8 Oeste 2 -- -- 94
2019-10-24 01:00:00 7.3 0 Calma 5 Oeste 4.2 -- -- 95
2019-10-24 00:00:00 7.7 2 Sudoeste 10 Oeste 3.6 -- -- 95
2019-10-23 23:00:00 7.9 0 Calma 13 Oeste 3.8 -- -- 94
2019-10-23 22:00:00 8.1 0 Calma 9 Sudoeste 6 -- -- 94
2019-10-23 21:00:00 9 0 Calma 9 Sudoeste 5.6 -- -- 94
2019-10-23 20:00:00 10 0 Calma 10 Este 1 -- -- 95
2019-10-23 19:00:00 10.6 6 Este 13 Este 1.2 -- -- 93
2019-10-23 18:00:00 11.8 6 Este 14 Este 0.4 -- -- 90
2019-10-23 17:00:00 12.2 8 Este 13 Este 0.2 -- -- 88
2019-10-23 16:00:00 12.3 5 Oeste 19 Norte 0 -- -- 83
2019-10-23 15:00:00 12.2 9 Noroeste 19 Norte 0 -- -- 84
2019-10-23 14:00:00 12.2 4 Este 19 Norte 0 -- -- 86
2019-10-23 13:00:00 10.6 4 Sudeste 24 Nordeste 2.4 -- -- 95
2019-10-23 12:00:00 10 9 Este 21 Noroeste 0.2 -- -- 95
2019-10-23 11:00:00 9.6 0 Calma 20 Noroeste 3.8 -- -- 97
2019-10-23 10:00:00 9.5 6 Oeste 13 Noroeste 5 -- -- 97
2019-10-23 09:00:00 9.4 0 Calma 10 Noroeste 3.8 -- -- 96
2019-10-23 08:00:00 9.5 2 Oeste 19 Noroeste 2.6 -- -- 95
2019-10-23 07:00:00 9.5 10 Nordeste 30 Norte 0.8 -- -- 92
2019-10-23 06:00:00 9.6 13 Noroeste 36 Noroeste 0 -- -- 90
2019-10-23 05:00:00 9.5 11 Noroeste 47 Noroeste 0 -- -- 90
2019-10-23 04:00:00 9.2 20 Norte 45 Noroeste 0 -- -- 90
2019-10-23 03:00:00 9 10 Norte 24 Norte 0 -- -- 91
2019-10-23 02:00:00 8.5 5 Noroeste 27 Noroeste 0 -- -- 91
2019-10-23 01:00:00 8 12 Noroeste 27 Nordeste 0 -- -- 91
2019-10-23 00:00:00 7.9 6 Norte 36 Norte 0 -- -- 90
2019-10-22 23:00:00 7.6 6 Noroeste 23 Norte 0.4 -- -- 89
2019-10-22 22:00:00 7.7 10 Nordeste 31 Norte 0 -- -- 88
2019-10-22 21:00:00 7.7 9 Norte 33 Norte 0.6 -- -- 87
2019-10-22 20:00:00 8.3 12 Nordeste 33 Norte 1.4 -- -- 88
2019-10-22 19:00:00 8.7 15 Norte 34 Norte 0.2 -- -- 85
2019-10-22 18:00:00 9.3 8 Norte 28 Nordeste 0 -- -- 82
2019-10-22 17:00:00 9.5 9 Nordeste 24 Nordeste 0 -- -- 83
2019-10-22 16:00:00 9.7 10 Nordeste 23 Norte 0 -- -- 83
2019-10-22 15:00:00 9.4 8 Norte 22 Norte 0.2 -- -- 88
2019-10-22 14:00:00 9.6 10 Norte 22 Norte 0 -- -- 83
2019-10-22 13:00:00 9 9 Norte 24 Nordeste 0 -- -- 90
2019-10-22 12:00:00 6.5 6 Este 10 Este 0 -- -- 98
2019-10-22 11:00:00 5 4 Oeste 16 Oeste 0 -- -- 99
2019-10-22 10:00:00 4 8 Oeste 10 Oeste 0 -- -- 98
2019-10-22 09:00:00 3.5 0 Calma 5 Oeste 0 -- -- 98
2019-10-22 08:00:00 3.5 4 Nordeste 12 Noroeste 0 -- -- 97
2019-10-22 07:00:00 4 0 Calma 9 Noroeste 0 -- -- 97
2019-10-22 06:00:00 5.1 5 Noroeste 9 Noroeste 0 -- -- 96
2019-10-22 05:00:00 5.1 5 Noroeste 9 Noroeste 0 -- -- 97
2019-10-22 04:00:00 5 3 Noroeste 9 Noroeste 0 -- -- 97
2019-10-22 03:00:00 5.6 4 Oeste 6 Noroeste 0 -- -- 96
2019-10-22 02:00:00 5.8 0 Calma 5 Noroeste 0 -- -- 96
2019-10-22 01:00:00 5.7 3 Oeste 5 Noroeste 0 -- -- 95
2019-10-22 00:00:00 5.6 0 Calma 5 Noroeste 0 -- -- 94
2019-10-21 23:00:00 6 0 Calma 4 Este 0 -- -- 93
2019-10-21 22:00:00 6.6 0 Calma 8 Nordeste 0 -- -- 91
2019-10-21 21:00:00 7.8 2 Norte 14 Norte 0 -- -- 85
2019-10-21 20:00:00 8.7 5 Norte 15 Norte 0 -- -- 82
2019-10-21 19:00:00 10.1 8 Norte 14 Norte 0 -- -- 73
2019-10-21 18:00:00 12 2 Sudeste 10 Sudeste 0 -- -- 61
2019-10-21 17:00:00 13.1 3 Sudeste 15 Este 0 -- -- 57
2019-10-21 16:00:00 12.2 3 Sur 8 Sur 0 -- -- 61
2019-10-21 15:00:00 11.2 5 Sudoeste 14 Oeste 0 -- -- 68
2019-10-21 14:00:00 10.9 6 Noroeste 13 Sudeste 0 -- -- 72
2019-10-21 13:00:00 8.3 4 Sur 10 Oeste 0 -- -- 80
2019-10-21 12:00:00 7 3 Noroeste 10 Noroeste 0 -- -- 87
2019-10-21 11:00:00 6 4 Noroeste 9 Oeste 0 -- -- 93
2019-10-21 10:00:00 5.5 3 Noroeste 7 Noroeste 0 -- -- 96
2019-10-21 09:00:00 5 3 Noroeste 8 Sudeste 0 -- -- 97
2019-10-21 08:00:00 5 3 Noroeste 6 Norte 0 -- -- 97
2019-10-21 07:00:00 5 4 Norte 9 Norte 0 -- -- 98
2019-10-21 06:00:00 5 2 Noroeste 6 Oeste 0 -- -- 98
2019-10-21 05:00:00 4.9 6 Norte 12 Norte 0 -- -- 98
2019-10-21 04:00:00 4.7 0 Calma 9 Noroeste 0 -- -- 98
2019-10-21 03:00:00 4.4 4 Oeste 8 Noroeste 0 -- -- 98
2019-10-21 02:00:00 3.8 3 Oeste 6 Oeste 0 -- -- 98
2019-10-21 01:00:00 3.3 5 Noroeste 10 Noroeste 0 -- -- 97
2019-10-21 00:00:00 3.7 3 Oeste 9 Oeste 0 -- -- 97
2019-10-20 23:00:00 4.6 6 Noroeste 8 Oeste 0 -- -- 96
2019-10-20 22:00:00 4.8 4 Noroeste 8 Noroeste 0 -- -- 95
2019-10-20 21:00:00 6.2 2 Noroeste 6 Nordeste 0 -- -- 95
2019-10-20 20:00:00 6.9 0 Calma 8 Nordeste 0 -- -- 94
2019-10-20 19:00:00 7.5 2 Noroeste 6 Oeste 0.4 -- -- 92
2019-10-20 18:00:00 7.7 3 Oeste 6 Sudoeste 0.4 -- -- 93
2019-10-20 17:00:00 7.7 4 Sudoeste 10 Oeste 0.6 -- -- 91
2019-10-20 16:00:00 7.6 4 Oeste 15 Oeste 0.8 -- -- 94
2019-10-20 15:00:00 7.2 3 Oeste 6 Sur 0.4 -- -- 92
2019-10-20 14:00:00 6.5 3 Oeste 8 Sudoeste 1.4 -- -- 93
2019-10-20 13:00:00 6.1 3 Oeste 8 Sur 1.6 -- -- 93
2019-10-20 12:00:00 5.8 3 Sudeste 13 Noroeste 2.4 -- -- 91
2019-10-20 11:00:00 5.9 5 Noroeste 12 Noroeste 1.4 -- -- 92
2019-10-20 10:00:00 6.1 2 Oeste 16 Noroeste 1.8 -- -- 90
2019-10-20 09:00:00 6.8 4 Sur 12 Sudeste 0.4 -- -- 92
2019-10-20 08:00:00 7 5 Sudoeste 13 Oeste 1.4 -- -- 92
2019-10-20 07:00:00 7.6 4 Noroeste 26 Noroeste 2.6 -- -- 89
2019-10-20 06:00:00 8.4 6 Norte 19 Nordeste 1.2 -- -- 92
2019-10-20 05:00:00 8.7 6 Oeste 16 Este 0.4 -- -- 92
2019-10-20 04:00:00 8.6 8 Norte 17 Norte 0 -- -- 94
2019-10-20 03:00:00 8.7 5 Nordeste 13 Nordeste 1.2 -- -- 96
2019-10-20 02:00:00 8.7 3 Noroeste 10 Oeste 1.6 -- -- 96
2019-10-20 01:00:00 8.8 0 Calma 7 Oeste 3.4 -- -- 95
2019-10-20 00:00:00 9.1 2 Sudoeste 13 Noroeste 3 -- -- 93
2019-10-19 23:00:00 9.4 0 Calma 15 Norte 1.4 -- -- 92
2019-10-19 22:00:00 10.3 4 Norte 19 Norte 0.2 -- -- 92
2019-10-19 21:00:00 12.1 7 Oeste 22 Sudoeste 1.6 -- -- 88
2019-10-19 20:00:00 12 5 Sudeste 21 Sudeste 0 -- -- 88
2019-10-19 19:00:00 11.7 4 Norte 12 Este 0.4 -- -- 89
2019-10-19 18:00:00 11.8 4 Sudeste 23 Sudoeste 0.2 -- -- 88
2019-10-19 17:00:00 12 4 Sur 17 Sur 0.6 -- -- 88
2019-10-19 16:00:00 12.3 6 Sudoeste 29 Sur 0 -- -- 82
2019-10-19 15:00:00 12.2 10 Sudoeste 23 Sudoeste 0.6 -- -- 87
2019-10-19 14:00:00 11.3 6 Sudoeste 21 Sudoeste 1 -- -- 91
2019-10-19 13:00:00 11.5 5 Sur 26 Sur 0.4 -- -- 87
2019-10-19 12:00:00 11.6 7 Sur 23 Sur 0.4 -- -- 84
2019-10-19 11:00:00 11.1 9 Sudoeste 28 Sudoeste 0 -- -- 85
2019-10-19 10:00:00 11.2 4 Sudoeste 24 Sudoeste 0 -- -- 83
2019-10-19 09:00:00 11 8 Sudoeste 24 Sudoeste 0 -- -- 83
2019-10-19 08:00:00 11.1 10 Sudoeste 23 Sudoeste 0 -- -- 83
2019-10-19 07:00:00 11.1 6 Sudoeste 19 Noroeste 0 -- -- 80
2019-10-19 06:00:00 11.3 7 Sudoeste 22 Oeste 0 -- -- 80
2019-10-19 05:00:00 11.2 7 Sudoeste 19 Sudoeste 0 -- -- 82
2019-10-19 04:00:00 11.4 8 Sudoeste 26 Sudoeste 0.2 -- -- 82
2019-10-19 03:00:00 11.7 6 Sudoeste 24 Sudoeste 0 -- -- 79
2019-10-19 02:00:00 11.9 9 Sudoeste 24 Sudoeste 0 -- -- 77
2019-10-19 01:00:00 11.8 0 Calma 29 Sur 0 -- -- 77
2019-10-19 00:00:00 12 8 Oeste 27 Oeste 0 -- -- 76
2019-10-18 23:00:00 12.4 11 Oeste 21 Oeste 0 -- -- 72
2019-10-18 22:00:00 12.1 2 Oeste 10 Sudoeste 0 -- -- 76
2019-10-18 21:00:00 12.5 3 Oeste 8 Noroeste 0 -- -- 73
2019-10-18 20:00:00 13 6 Sudoeste 12 Sudoeste 0 -- -- 69
2019-10-18 19:00:00 14 5 Sudoeste 20 Oeste 0 -- -- 65
2019-10-18 18:00:00 14.8 14 Sudoeste 29 Sudoeste 0 -- -- 59
2019-10-18 17:00:00 16 12 Sudoeste 27 Sudoeste 0 -- -- 55
2019-10-18 16:00:00 16.5 13 Sudoeste 27 Sudoeste 0 -- -- 54
2019-10-18 15:00:00 16.7 12 Sudoeste 34 Oeste 0 -- -- 54
2019-10-18 14:00:00 16.8 14 Sudoeste 28 Oeste 0 -- -- 52
2019-10-18 13:00:00 16.5 10 Sudoeste 22 Sudoeste 0 -- -- 58
2019-10-18 12:00:00 14.7 8 Este 14 Este 0 -- -- 75
2019-10-18 11:00:00 12.1 8 Este 14 Sudeste 0 -- -- 90
2019-10-18 10:00:00 11.3 6 Este 10 Este 0 -- -- 96
2019-10-18 09:00:00 11.3 0 Calma 3 Sudeste 0 -- -- 95
2019-10-18 08:00:00 11.3 2 Nordeste 13 Norte 0 -- -- 93
2019-10-18 07:00:00 11.6 9 Norte 20 Norte 0 -- -- 92
2019-10-18 06:00:00 11.7 4 Noroeste 9 Noroeste 0 -- -- 95
2019-10-18 05:00:00 12.2 2 Noroeste 9 Sudoeste 0 -- -- 94
2019-10-18 04:00:00 12.7 4 Sudoeste 12 Oeste 0 -- -- 94
2019-10-18 03:00:00 13.5 4 Oeste 12 Oeste 0.4 -- -- 92
2019-10-18 02:00:00 14 3 Oeste 17 Sudoeste 1 -- -- 87
2019-10-18 01:00:00 13.7 3 Oeste 15 Norte 0 -- -- 86
2019-10-18 00:00:00 13.1 4 Noroeste 11 Noroeste 0 -- -- 85